Time;durP1;ratioP1;P1;durP2;ratioP2;P2;SDS_P1;SDS_P2;PMS_P1;PMS_P2;Temp;Humidity;BMP_temperature;BMP_pressure;BME280_temperature;BME280_humidity;BME280_pressure;Samples;Min_cycle;Max_cycle;Signal;HPM_P1;HPM_P2
2022/09/25 00:01:15;;;;;;;;;4.00;3.00;;;;;;;;5104215;27;45813;-79
2022/09/25 00:03:41;;;;;;;;;2.00;2.00;;;;;;;;5096165;27;45662;-78
2022/09/25 00:06:10;;;;;;;;;4.67;2.00;;;;;;;;5113654;27;45792;-79
2022/09/25 00:08:35;;;;;;;;;4.00;2.00;;;;;;;;5085890;27;46822;-78
2022/09/25 00:11:05;;;;;;;;;4.00;4.00;;;;;;;;5095263;27;46060;-79
2022/09/25 00:13:30;;;;;;;;;3.67;3.00;;;;;;;;5096345;27;45493;-77
2022/09/25 00:15:56;;;;;;;;;4.00;4.00;;;;;;;;5112213;27;45674;-78
2022/09/25 00:21:10;;;;;;;;;2.67;2.33;;;;;;;;5125269;27;45488;-78
2022/09/25 00:23:36;;;;;;;;;3.00;3.00;;;;;;;;5106763;27;45495;-81
2022/09/25 00:26:01;;;;;;;;;3.67;3.00;;;;;;;;5116441;27;45812;-80
2022/09/25 00:28:28;;;;;;;;;5.33;2.00;;;;;;;;5108531;27;47277;-80
2022/09/25 00:30:54;;;;;;;;;2.67;2.67;;;;;;;;5108208;27;45508;-80
2022/09/25 00:33:19;;;;;;;;;7.00;3.00;;;;;;;;5109620;27;45818;-80
2022/09/25 00:35:44;;;;;;;;;6.00;2.00;;;;;;;;5120633;27;45737;-81
2022/09/25 00:38:10;;;;;;;;;4.00;2.00;;;;;;;;5109530;27;45791;-77
2022/09/25 00:40:35;;;;;;;;;3.00;3.00;;;;;;;;5109241;27;45391;-81
2022/09/25 00:43:01;;;;;;;;;4.00;4.00;;;;;;;;5116264;27;45317;-81
2022/09/25 00:45:26;;;;;;;;;3.33;3.00;;;;;;;;5108777;27;45565;-80
2022/09/25 00:47:54;;;;;;;;;3.33;2.00;;;;;;;;5092993;27;48206;-81
2022/09/25 00:50:38;;;;;;;;;3.33;3.33;;;;;;;;5093909;27;45529;-80
2022/09/25 00:53:08;;;;;;;;;3.00;3.00;;;;;;;;5121039;27;46468;-82
2022/09/25 00:55:34;;;;;;;;;7.33;3.00;;;;;;;;5098372;27;45939;-81
2022/09/25 00:58:01;;;;;;;;;8.67;5.00;;;;;;;;5103449;27;47162;-80
2022/09/25 01:00:27;;;;;;;;;4.67;4.00;;;;;;;;5099323;27;45738;-80
2022/09/25 01:02:53;;;;;;;;;7.33;5.00;;;;;;;;5115124;27;45407;-80
2022/09/25 01:05:22;;;;;;;;;4.67;3.33;;;;;;;;5108986;27;45756;-80
2022/09/25 01:07:48;;;;;;;;;5.67;4.00;;;;;;;;5096717;27;47606;-79
2022/09/25 01:10:14;;;;;;;;;4.00;4.00;;;;;;;;5108290;27;45350;-80
2022/09/25 01:12:42;;;;;;;;;3.00;3.00;;;;;;;;5092630;27;45508;-80
2022/09/25 01:15:10;;;;;;;;;4.33;3.00;;;;;;;;5107644;27;45403;-81
2022/09/25 01:17:44;;;;;;;;;3.67;3.67;;;;;;;;5074463;27;45745;-80
2022/09/25 01:20:16;;;;;;;;;3.00;3.00;;;;;;;;5109993;27;45384;-79
2022/09/25 01:23:00;;;;;;;;;6.00;5.00;;;;;;;;5117979;27;45477;-80
2022/09/25 01:25:28;;;;;;;;;5.00;5.00;;;;;;;;5113565;27;45594;-78
2022/09/25 01:28:23;;;;;;;;;6.67;4.67;;;;;;;;5108591;27;45470;-76
2022/09/25 01:30:50;;;;;;;;;4.67;3.00;;;;;;;;5090067;27;45472;-77
2022/09/25 01:33:17;;;;;;;;;6.00;3.33;;;;;;;;5113130;27;44848;-76
2022/09/25 01:35:55;;;;;;;;;7.00;7.00;;;;;;;;5110698;27;46636;-78
2022/09/25 01:38:40;;;;;;;;;3.00;2.33;;;;;;;;5111955;27;45481;-77
2022/09/25 01:41:06;;;;;;;;;5.67;3.00;;;;;;;;5106569;27;45452;-79
2022/09/25 01:43:43;;;;;;;;;5.33;3.33;;;;;;;;5125488;27;45470;-77
2022/09/25 01:46:12;;;;;;;;;7.00;5.33;;;;;;;;5101093;27;45532;-79
2022/09/25 01:48:39;;;;;;;;;3.67;3.67;;;;;;;;5093718;27;47524;-78
2022/09/25 01:51:09;;;;;;;;;4.00;4.00;;;;;;;;5112832;27;45450;-80
2022/09/25 01:53:43;;;;;;;;;5.67;3.67;;;;;;;;5093613;27;45457;-79
2022/09/25 01:56:15;;;;;;;;;6.33;5.00;;;;;;;;5102610;27;45778;-80
2022/09/25 01:58:45;;;;;;;;;8.00;5.00;;;;;;;;5106796;27;46557;-80
2022/09/25 02:01:15;;;;;;;;;7.00;7.00;;;;;;;;5110518;27;45696;-80
2022/09/25 02:03:47;;;;;;;;;5.67;4.67;;;;;;;;5113100;27;45766;-80
2022/09/25 02:06:16;;;;;;;;;4.00;4.00;;;;;;;;5113727;27;45720;-80
2022/09/25 02:08:46;;;;;;;;;5.00;3.67;;;;;;;;5110064;27;45433;-82
2022/09/25 02:11:13;;;;;;;;;4.00;3.33;;;;;;;;5110618;27;45472;-81
2022/09/25 02:13:44;;;;;;;;;5.33;5.33;;;;;;;;5104083;27;45430;-81
2022/09/25 02:16:12;;;;;;;;;7.67;5.00;;;;;;;;5091875;27;46329;-80
2022/09/25 02:21:37;;;;;;;;;8.00;4.00;;;;;;;;5111234;27;45659;-77
2022/09/25 02:24:08;;;;;;;;;8.67;5.33;;;;;;;;5112009;27;45315;-80
2022/09/25 02:26:34;;;;;;;;;5.67;5.67;;;;;;;;5104847;27;45614;-80
2022/09/25 02:29:01;;;;;;;;;5.00;4.00;;;;;;;;5115580;27;46106;-80
2022/09/25 02:31:39;;;;;;;;;9.00;7.67;;;;;;;;5096491;27;45435;-80
2022/09/25 02:34:05;;;;;;;;;8.00;5.67;;;;;;;;5084733;27;45733;-81
2022/09/25 02:36:32;;;;;;;;;12.00;6.33;;;;;;;;5125910;27;45504;-81
2022/09/25 02:38:58;;;;;;;;;9.00;6.33;;;;;;;;5107026;27;45784;-78
2022/09/25 02:41:30;;;;;;;;;9.33;6.33;;;;;;;;5112541;27;45538;-81
2022/09/25 02:44:18;;;;;;;;;10.00;6.33;;;;;;;;5092134;27;45529;-78
2022/09/25 02:46:50;;;;;;;;;8.67;7.33;;;;;;;;5110094;27;45531;-77
2022/09/25 02:49:23;;;;;;;;;8.67;7.00;;;;;;;;5109895;27;45775;-77
2022/09/25 02:51:56;;;;;;;;;10.33;6.67;;;;;;;;5093472;27;45316;-78
2022/09/25 02:54:22;;;;;;;;;6.00;5.33;;;;;;;;5108204;27;45788;-77
2022/09/25 02:56:52;;;;;;;;;9.33;8.33;;;;;;;;5087755;27;45783;-77
2022/09/25 02:59:21;;;;;;;;;10.00;6.67;;;;;;;;5116384;27;45484;-79
2022/09/25 03:01:47;;;;;;;;;8.67;6.33;;;;;;;;5115615;27;45819;-81
2022/09/25 03:04:13;;;;;;;;;7.00;7.00;;;;;;;;5090661;27;45757;-79
2022/09/25 03:06:39;;;;;;;;;10.00;9.00;;;;;;;;5107419;27;45396;-77
2022/09/25 03:09:05;;;;;;;;;14.00;9.67;;;;;;;;5113024;27;45797;-76
2022/09/25 03:11:31;;;;;;;;;7.33;7.33;;;;;;;;5098619;27;45699;-77
2022/09/25 03:13:57;;;;;;;;;10.33;6.00;;;;;;;;5096695;27;45710;-79
2022/09/25 03:16:35;;;;;;;;;8.00;7.00;;;;;;;;5113055;27;45750;-76
2022/09/25 03:19:01;;;;;;;;;11.33;9.67;;;;;;;;5107914;27;45476;-78
2022/09/25 03:21:26;;;;;;;;;12.67;9.67;;;;;;;;5105576;27;45731;-81
2022/09/25 03:23:51;;;;;;;;;13.67;12.33;;;;;;;;5116615;27;45818;-81
2022/09/25 03:26:17;;;;;;;;;10.33;9.67;;;;;;;;5099193;27;46281;-82
2022/09/25 03:28:42;;;;;;;;;14.33;13.67;;;;;;;;5119284;27;45583;-80
2022/09/25 03:31:10;;;;;;;;;11.33;9.67;;;;;;;;5102850;27;45974;-77
2022/09/25 03:33:36;;;;;;;;;12.33;9.67;;;;;;;;5098132;27;46216;-76
2022/09/25 03:36:05;;;;;;;;;10.67;9.67;;;;;;;;5104654;27;45531;-78
2022/09/25 03:38:30;;;;;;;;;14.67;11.00;;;;;;;;5118482;27;46258;-77
2022/09/25 03:40:55;;;;;;;;;10.00;10.00;;;;;;;;5082593;27;45426;-81
2022/09/25 03:43:20;;;;;;;;;7.67;7.00;;;;;;;;5110609;27;45430;-77
2022/09/25 03:45:46;;;;;;;;;12.00;9.00;;;;;;;;5112443;27;45536;-77
2022/09/25 03:48:11;;;;;;;;;13.33;10.33;;;;;;;;5117503;27;46246;-81
2022/09/25 03:50:38;;;;;;;;;8.67;8.33;;;;;;;;5098239;27;45887;-79
2022/09/25 03:53:03;;;;;;;;;10.33;9.00;;;;;;;;5095778;27;45374;-80
2022/09/25 03:55:28;;;;;;;;;10.00;8.33;;;;;;;;5092958;27;45840;-84
2022/09/25 03:57:54;;;;;;;;;9.00;7.67;;;;;;;;5085179;27;47261;-81
2022/09/25 04:00:19;;;;;;;;;12.00;10.00;;;;;;;;5109131;27;45340;-83
2022/09/25 04:02:45;;;;;;;;;11.00;9.67;;;;;;;;5099470;27;45939;-84
2022/09/25 04:05:10;;;;;;;;;14.67;9.33;;;;;;;;5093019;27;46100;-79
2022/09/25 04:07:36;;;;;;;;;11.00;9.00;;;;;;;;5095593;27;47862;-79
2022/09/25 04:10:01;;;;;;;;;9.67;9.67;;;;;;;;5110896;27;45819;-79
2022/09/25 04:12:27;;;;;;;;;12.00;9.67;;;;;;;;5124564;27;45709;-81
2022/09/25 04:14:53;;;;;;;;;13.33;12.67;;;;;;;;5118058;27;45774;-80
2022/09/25 04:17:19;;;;;;;;;13.33;10.67;;;;;;;;5120033;27;45562;-82
2022/09/25 04:19:45;;;;;;;;;11.67;10.00;;;;;;;;5107402;27;45420;-81
2022/09/25 04:22:11;;;;;;;;;13.00;11.67;;;;;;;;5117382;27;45824;-81
2022/09/25 04:24:48;;;;;;;;;16.67;14.00;;;;;;;;5108265;27;45581;-79
2022/09/25 04:27:22;;;;;;;;;15.00;12.67;;;;;;;;5106712;27;46417;-80
2022/09/25 04:29:48;;;;;;;;;22.00;18.00;;;;;;;;5091020;27;45448;-83
2022/09/25 04:34:58;;;;;;;;;19.33;16.00;;;;;;;;5103913;27;45393;-79
2022/09/25 04:37:25;;;;;;;;;22.67;16.33;;;;;;;;5117843;27;45374;-82
2022/09/25 04:39:59;;;;;;;;;15.00;13.33;;;;;;;;5117845;27;45256;-81
2022/09/25 04:42:24;;;;;;;;;16.00;14.67;;;;;;;;5117534;27;45858;-79
2022/09/25 04:44:54;;;;;;;;;13.33;13.33;;;;;;;;5120401;27;45755;-81
2022/09/25 04:47:20;;;;;;;;;17.67;13.67;;;;;;;;5117179;27;45485;-82
2022/09/25 04:49:45;;;;;;;;;14.67;12.67;;;;;;;;5116655;27;45877;-81
2022/09/25 04:52:12;;;;;;;;;17.00;14.67;;;;;;;;5117273;27;45438;-81
2022/09/25 04:54:37;;;;;;;;;17.67;16.00;;;;;;;;5113866;27;45827;-82
2022/09/25 04:57:02;;;;;;;;;18.33;14.00;;;;;;;;5109263;27;45364;-83
2022/09/25 04:59:28;;;;;;;;;20.00;14.00;;;;;;;;5116553;27;45432;-83
2022/09/25 05:01:53;;;;;;;;;17.67;15.00;;;;;;;;5117496;27;45511;-83
2022/09/25 05:04:19;;;;;;;;;15.00;12.33;;;;;;;;5123298;27;45588;-83
2022/09/25 05:06:44;;;;;;;;;13.67;13.67;;;;;;;;5122598;27;45411;-82
2022/09/25 05:09:09;;;;;;;;;13.00;10.00;;;;;;;;5099561;27;45398;-82
2022/09/25 05:11:34;;;;;;;;;11.33;11.33;;;;;;;;5100191;27;45506;-83
2022/09/25 05:14:00;;;;;;;;;14.00;12.00;;;;;;;;5102551;27;45678;-83
2022/09/25 05:16:27;;;;;;;;;16.33;11.67;;;;;;;;5111894;27;46251;-81
2022/09/25 05:18:53;;;;;;;;;10.33;9.33;;;;;;;;5115594;27;45645;-82
2022/09/25 05:21:18;;;;;;;;;13.67;9.67;;;;;;;;5097742;27;45954;-81
2022/09/25 05:23:43;;;;;;;;;13.00;9.00;;;;;;;;5121098;27;45522;-83
2022/09/25 05:26:09;;;;;;;;;12.67;9.33;;;;;;;;5097121;27;45665;-82
2022/09/25 05:28:35;;;;;;;;;10.33;8.33;;;;;;;;5125530;27;45629;-81
2022/09/25 05:31:02;;;;;;;;;14.33;11.67;;;;;;;;5111367;27;45864;-83
2022/09/25 05:33:27;;;;;;;;;12.33;10.33;;;;;;;;5115368;27;45471;-82
2022/09/25 05:35:52;;;;;;;;;11.33;11.33;;;;;;;;5119575;27;45343;-83
2022/09/25 05:38:18;;;;;;;;;11.00;10.33;;;;;;;;5126270;27;45428;-82
2022/09/25 05:40:43;;;;;;;;;12.33;9.67;;;;;;;;5114961;27;45375;-82
2022/09/25 05:43:11;;;;;;;;;5.33;5.33;;;;;;;;5096134;27;45975;-82
2022/09/25 05:45:36;;;;;;;;;12.00;9.67;;;;;;;;5110208;27;45491;-84
2022/09/25 05:48:05;;;;;;;;;8.00;7.00;;;;;;;;5116796;27;45746;-83
2022/09/25 05:50:31;;;;;;;;;9.33;8.00;;;;;;;;5103766;27;45475;-83
2022/09/25 05:53:01;;;;;;;;;8.67;8.67;;;;;;;;5090084;27;46290;-82
2022/09/25 05:55:27;;;;;;;;;10.67;8.00;;;;;;;;5105384;27;46489;-81
2022/09/25 05:57:52;;;;;;;;;10.00;7.67;;;;;;;;5096545;27;45800;-83
2022/09/25 06:00:17;;;;;;;;;9.00;7.67;;;;;;;;5095081;27;45483;-82
2022/09/25 06:02:43;;;;;;;;;5.33;5.33;;;;;;;;5099368;27;45599;-80
2022/09/25 06:05:08;;;;;;;;;9.67;7.33;;;;;;;;5088559;27;46060;-77
2022/09/25 06:07:34;;;;;;;;;7.67;7.67;;;;;;;;5087645;27;45461;-76
2022/09/25 06:09:59;;;;;;;;;8.00;7.67;;;;;;;;5113501;27;45975;-75
2022/09/25 06:12:24;;;;;;;;;9.00;6.67;;;;;;;;5106869;27;47164;-74
2022/09/25 06:14:51;;;;;;;;;11.00;8.33;;;;;;;;5119868;27;47170;-75
2022/09/25 06:17:16;;;;;;;;;7.33;6.00;;;;;;;;5114471;27;45914;-76
2022/09/25 06:19:42;;;;;;;;;6.67;6.67;;;;;;;;5097538;27;45632;-75
2022/09/25 06:22:07;;;;;;;;;6.67;5.67;;;;;;;;5101935;27;45426;-76
2022/09/25 06:24:32;;;;;;;;;12.00;9.00;;;;;;;;5120303;27;45733;-77
2022/09/25 06:26:57;;;;;;;;;6.33;5.00;;;;;;;;5108443;27;45373;-78
2022/09/25 06:29:23;;;;;;;;;3.33;3.33;;;;;;;;5126146;27;45526;-78
2022/09/25 06:31:49;;;;;;;;;6.33;4.67;;;;;;;;5098957;27;46489;-77
2022/09/25 06:34:14;;;;;;;;;3.33;3.33;;;;;;;;5113170;27;45927;-79
2022/09/25 06:36:39;;;;;;;;;6.33;4.00;;;;;;;;5129290;27;45752;-77
2022/09/25 06:39:05;;;;;;;;;7.67;5.67;;;;;;;;5093823;27;45505;-76
2022/09/25 06:41:31;;;;;;;;;5.00;5.00;;;;;;;;5120421;27;45522;-76
2022/09/25 06:43:56;;;;;;;;;5.67;3.33;;;;;;;;5096365;27;47389;-78
2022/09/25 06:46:21;;;;;;;;;20.33;18.67;;;;;;;;5096402;27;45644;-78
2022/09/25 06:48:54;;;;;;;;;6.00;6.00;;;;;;;;5098031;27;45707;-77
2022/09/25 06:51:20;;;;;;;;;5.67;5.33;;;;;;;;5101489;27;45892;-80
2022/09/25 06:53:45;;;;;;;;;3.00;3.00;;;;;;;;5105318;27;46208;-79
2022/09/25 06:56:11;;;;;;;;;6.00;3.00;;;;;;;;5098536;27;45982;-79
2022/09/25 06:58:36;;;;;;;;;7.33;4.00;;;;;;;;5095576;27;45523;-79
2022/09/25 07:01:01;;;;;;;;;2.67;2.00;;;;;;;;5105649;27;45366;-79
2022/09/25 07:03:45;;;;;;;;;3.67;3.33;;;;;;;;5118757;27;45342;-86
2022/09/25 07:06:12;;;;;;;;;4.33;2.00;;;;;;;;5116153;27;45424;-79
2022/09/25 07:08:37;;;;;;;;;5.00;3.00;;;;;;;;5091876;27;46047;-80
2022/09/25 07:11:03;;;;;;;;;7.00;3.67;;;;;;;;5108769;27;45690;-83
2022/09/25 07:13:30;;;;;;;;;2.33;2.33;;;;;;;;5093466;27;47216;-76
2022/09/25 07:16:01;;;;;;;;;1.67;1.67;;;;;;;;5101183;27;45792;-78
2022/09/25 07:18:27;;;;;;;;;2.33;2.33;;;;;;;;5101613;27;45433;-84
2022/09/25 07:20:58;;;;;;;;;1.00;1.00;;;;;;;;5111293;27;46719;-85
2022/09/25 07:23:23;;;;;;;;;5.33;3.00;;;;;;;;5116443;27;45695;-78
2022/09/25 07:25:48;;;;;;;;;1.00;1.00;;;;;;;;5089855;27;45572;-77
2022/09/25 07:28:14;;;;;;;;;5.00;4.00;;;;;;;;5105628;27;45714;-76
2022/09/25 07:30:40;;;;;;;;;2.67;1.33;;;;;;;;5103790;27;45484;-78
2022/09/25 07:33:05;;;;;;;;;5.00;3.67;;;;;;;;5086672;27;46429;-77
2022/09/25 07:35:30;;;;;;;;;2.00;2.00;;;;;;;;5104136;27;45624;-77
2022/09/25 07:37:56;;;;;;;;;3.00;2.00;;;;;;;;5089045;27;45989;-77
2022/09/25 07:40:22;;;;;;;;;3.33;2.00;;;;;;;;5094875;27;45385;-78
2022/09/25 07:42:47;;;;;;;;;2.00;2.00;;;;;;;;5105181;27;45904;-83
2022/09/25 07:45:12;;;;;;;;;1.67;1.67;;;;;;;;5114065;27;45408;-84
2022/09/25 07:47:38;;;;;;;;;4.00;3.00;;;;;;;;5110722;27;45377;-81
2022/09/25 07:50:03;;;;;;;;;4.00;2.00;;;;;;;;5112639;27;45539;-84
2022/09/25 07:52:28;;;;;;;;;3.00;1.00;;;;;;;;5113156;27;46134;-83
2022/09/25 07:54:54;;;;;;;;;2.67;1.00;;;;;;;;5107268;27;45520;-84
2022/09/25 07:57:19;;;;;;;;;2.00;2.00;;;;;;;;5112176;27;45922;-83
2022/09/25 07:59:45;;;;;;;;;2.00;2.00;;;;;;;;5111089;27;46494;-85
2022/09/25 08:02:10;;;;;;;;;2.00;1.00;;;;;;;;5114681;27;45668;-85
2022/09/25 08:04:35;;;;;;;;;2.00;1.00;;;;;;;;5112997;27;45618;-84
2022/09/25 08:07:00;;;;;;;;;2.00;0.00;;;;;;;;5104576;27;45502;-78
2022/09/25 08:09:26;;;;;;;;;3.00;0.00;;;;;;;;5109034;27;45529;-84
2022/09/25 08:11:51;;;;;;;;;2.00;2.00;;;;;;;;5108168;27;45865;-77
2022/09/25 08:14:17;;;;;;;;;2.00;1.33;;;;;;;;5086129;27;45893;-78
2022/09/25 08:16:42;;;;;;;;;1.00;1.00;;;;;;;;5093871;27;45864;-76
2022/09/25 08:19:09;;;;;;;;;2.33;2.00;;;;;;;;5080685;27;46029;-77
2022/09/25 08:21:34;;;;;;;;;1.33;0.00;;;;;;;;5105971;27;45456;-77
2022/09/25 08:24:00;;;;;;;;;1.00;1.00;;;;;;;;5106313;27;45814;-77
2022/09/25 08:26:27;;;;;;;;;3.33;1.00;;;;;;;;5089312;27;45547;-78
2022/09/25 08:28:52;;;;;;;;;0.33;0.33;;;;;;;;5100249;27;45846;-77
2022/09/25 08:31:18;;;;;;;;;6.67;1.00;;;;;;;;5100809;27;45724;-77
2022/09/25 08:33:47;;;;;;;;;3.00;2.00;;;;;;;;5108409;27;46058;-77
2022/09/25 08:36:13;;;;;;;;;1.67;1.00;;;;;;;;5116051;27;45445;-80
2022/09/25 08:38:38;;;;;;;;;1.67;0.33;;;;;;;;5093686;27;45843;-76
2022/09/25 08:41:10;;;;;;;;;2.67;0.67;;;;;;;;5113593;27;46284;-79
2022/09/25 08:43:41;;;;;;;;;1.00;1.00;;;;;;;;5096355;27;45862;-80
2022/09/25 08:49:08;;;;;;;;;1.00;1.00;;;;;;;;5110256;27;45712;-84
2022/09/25 08:51:37;;;;;;;;;1.00;1.00;;;;;;;;5101101;27;45582;-83
2022/09/25 08:54:03;;;;;;;;;2.00;2.00;;;;;;;;5118984;27;45609;-84
2022/09/25 08:56:31;;;;;;;;;16.67;13.00;;;;;;;;5118276;27;45721;-83
2022/09/25 08:58:56;;;;;;;;;3.00;2.00;;;;;;;;5119529;27;45795;-83
2022/09/25 09:01:26;;;;;;;;;2.00;0.00;;;;;;;;5127525;27;45188;-84
2022/09/25 09:03:55;;;;;;;;;0.00;0.00;;;;;;;;5130190;27;46139;-81
2022/09/25 09:06:23;;;;;;;;;2.00;1.00;;;;;;;;5114611;27;45501;-86
2022/09/25 09:08:53;;;;;;;;;0.00;0.00;;;;;;;;5113762;27;46017;-83
2022/09/25 09:11:25;;;;;;;;;2.33;2.00;;;;;;;;5129280;27;45185;-85
2022/09/25 09:13:58;;;;;;;;;0.00;0.00;;;;;;;;5121801;27;47213;-84
2022/09/25 09:16:33;;;;;;;;;1.00;1.00;;;;;;;;5111604;27;45360;-83
2022/09/25 09:19:01;;;;;;;;;1.00;1.00;;;;;;;;5105450;27;45785;-84
2022/09/25 09:21:31;;;;;;;;;2.00;0.00;;;;;;;;5109461;27;45681;-82
2022/09/25 09:23:57;;;;;;;;;2.33;2.00;;;;;;;;5112296;27;45434;-83
2022/09/25 09:26:38;;;;;;;;;2.00;1.00;;;;;;;;5086750;27;45690;-84
2022/09/25 09:29:13;;;;;;;;;1.33;1.33;;;;;;;;5098263;27;46218;-83
2022/09/25 09:31:46;;;;;;;;;2.67;1.00;;;;;;;;5113654;27;45448;-84
2022/09/25 09:37:30;;;;;;;;;0.75;0.00;;;;;;;;5110721;27;45485;-81
2022/09/25 09:40:14;;;;;;;;;0.75;0.00;;;;;;;;5127872;27;45936;-83
2022/09/25 09:42:58;;;;;;;;;0.25;0.25;;;;;;;;5115142;27;45325;-82
2022/09/25 09:45:47;;;;;;;;;0.75;0.00;;;;;;;;5115113;27;45488;-81
2022/09/25 09:48:21;;;;;;;;;1.50;1.00;;;;;;;;5086731;27;45290;-82
2022/09/25 09:50:51;;;;;;;;;1.00;0.00;;;;;;;;5138152;27;44813;-83
2022/09/25 09:53:16;;;;;;;;;0.00;0.00;;;;;;;;5109189;27;45327;-84
2022/09/25 09:55:46;;;;;;;;;1.00;1.00;;;;;;;;5126641;27;45789;-83
2022/09/25 09:58:41;;;;;;;;;0.00;0.00;;;;;;;;5107549;27;45324;-85
2022/09/25 10:01:07;;;;;;;;;2.00;1.00;;;;;;;;5042652;27;45462;-83
2022/09/25 10:03:36;;;;;;;;;0.00;0.00;;;;;;;;5103763;27;45823;-80
2022/09/25 10:06:03;;;;;;;;;0.75;0.75;;;;;;;;5104282;27;45398;-79
2022/09/25 10:08:29;;;;;;;;;2.00;0.00;;;;;;;;5102454;27;45514;-79
2022/09/25 10:10:54;;;;;;;;;0.75;0.00;;;;;;;;5084061;27;46196;-79
2022/09/25 10:13:19;;;;;;;;;1.00;0.00;;;;;;;;5072576;27;48567;-78
2022/09/25 10:15:45;;;;;;;;;1.25;0.50;;;;;;;;5105963;27;45673;-79
2022/09/25 10:18:12;;;;;;;;;1.50;0.50;;;;;;;;5102711;27;45444;-82
2022/09/25 10:21:03;;;;;;;;;1.00;0.00;;;;;;;;5108539;27;45499;-85
2022/09/25 10:23:34;;;;;;;;;0.75;0.75;;;;;;;;5092228;27;45749;-80
2022/09/25 10:26:21;;;;;;;;;1.50;1.00;;;;;;;;5118487;27;45335;-83
2022/09/25 10:28:46;;;;;;;;;0.00;0.00;;;;;;;;5120556;27;45891;-85
2022/09/25 10:31:11;;;;;;;;;0.00;0.00;;;;;;;;5113218;27;45946;-79
2022/09/25 10:33:37;;;;;;;;;0.75;0.00;;;;;;;;5100253;27;45785;-80
2022/09/25 10:36:02;;;;;;;;;0.00;0.00;;;;;;;;5082833;27;45524;-79
2022/09/25 10:38:28;;;;;;;;;1.00;0.00;;;;;;;;5104647;27;45978;-79
2022/09/25 10:41:11;;;;;;;;;1.00;0.00;;;;;;;;5106553;27;45484;-83
2022/09/25 10:43:54;;;;;;;;;0.00;0.00;;;;;;;;5100061;27;48205;-84
2022/09/25 10:50:09;;;;;;;;;0.00;0.00;;;;;;;;5109864;27;45483;-82
2022/09/25 10:52:07;;;;;;;;;0.00;0.00;;;;;;;;5099687;27;45419;-80
2022/09/25 10:54:33;;;;;;;;;0.00;0.00;;;;;;;;5091432;27;48040;-81
2022/09/25 10:56:59;;;;;;;;;0.00;0.00;;;;;;;;5099147;27;45630;-80
2022/09/25 10:59:25;;;;;;;;;1.00;1.00;;;;;;;;5109750;27;45722;-78
2022/09/25 11:01:52;;;;;;;;;21.67;17.67;;;;;;;;5080289;27;47017;-81
2022/09/25 11:04:28;;;;;;;;;2.25;1.75;;;;;;;;5108622;27;45704;-80
2022/09/25 11:07:01;;;;;;;;;0.00;0.00;;;;;;;;5098939;27;45873;-80
2022/09/25 11:09:27;;;;;;;;;0.00;0.00;;;;;;;;5095776;27;45465;-79
2022/09/25 11:12:07;;;;;;;;;1.00;1.00;;;;;;;;5113415;27;46171;-79
2022/09/25 11:14:33;;;;;;;;;0.00;0.00;;;;;;;;5118853;27;45564;-78
2022/09/25 11:17:00;;;;;;;;;0.00;0.00;;;;;;;;5114508;27;45718;-83
2022/09/25 11:19:27;;;;;;;;;1.00;0.00;;;;;;;;5099035;27;45438;-83
2022/09/25 11:22:11;;;;;;;;;0.00;0.00;;;;;;;;5092007;27;46382;-81
2022/09/25 11:25:01;;;;;;;;;0.00;0.00;;;;;;;;5103068;27;47631;-80
2022/09/25 11:27:39;;;;;;;;;1.00;0.00;;;;;;;;5115533;27;45542;-80
2022/09/25 11:30:05;;;;;;;;;0.75;0.00;;;;;;;;5095987;27;45476;-84
2022/09/25 11:32:30;;;;;;;;;0.00;0.00;;;;;;;;5092153;27;46415;-83
2022/09/25 11:35:25;;;;;;;;;0.00;0.00;;;;;;;;5098284;27;46904;-84
2022/09/25 11:37:59;;;;;;;;;1.00;1.00;;;;;;;;5090258;27;45582;-83
2022/09/25 11:43:19;;;;;;;;;0.25;0.00;;;;;;;;5113565;27;45508;-83
2022/09/25 11:45:50;;;;;;;;;0.00;0.00;;;;;;;;5109972;27;45476;-85
2022/09/25 11:48:28;;;;;;;;;0.00;0.00;;;;;;;;5121003;27;45769;-84
2022/09/25 11:50:53;;;;;;;;;0.00;0.00;;;;;;;;5093483;27;45432;-83
2022/09/25 11:53:37;;;;;;;;;0.00;0.00;;;;;;;;5090464;27;45899;-83
2022/09/25 11:56:09;;;;;;;;;0.00;0.00;;;;;;;;5099917;27;47087;-79
2022/09/25 11:58:44;;;;;;;;;1.00;1.00;;;;;;;;5108718;27;45879;-81
2022/09/25 12:01:22;;;;;;;;;1.00;0.00;;;;;;;;5087943;27;45529;-79
2022/09/25 12:03:50;;;;;;;;;0.25;0.00;;;;;;;;5094075;27;45913;-79
2022/09/25 12:06:21;;;;;;;;;0.00;0.00;;;;;;;;5112509;27;45802;-81
2022/09/25 12:09:21;;;;;;;;;0.67;0.00;;;;;;;;5101831;27;45449;-80
2022/09/25 12:12:00;;;;;;;;;0.00;0.00;;;;;;;;5026942;28;45486;-79
2022/09/25 12:14:44;;;;;;;;;1.00;0.00;;;;;;;;5094495;27;45546;-81
2022/09/25 12:17:18;;;;;;;;;0.00;0.00;;;;;;;;5103470;27;45522;-80
2022/09/25 12:19:48;;;;;;;;;0.00;0.00;;;;;;;;5114867;27;45400;-80
2022/09/25 12:22:32;;;;;;;;;0.00;0.00;;;;;;;;5102949;27;45602;-79
2022/09/25 12:25:17;;;;;;;;;5.33;5.33;;;;;;;;5113998;27;45647;-80
2022/09/25 12:27:48;;;;;;;;;0.25;0.25;;;;;;;;5089286;27;46978;-79
2022/09/25 12:30:22;;;;;;;;;2.00;0.67;;;;;;;;5096847;27;45877;-79
2022/09/25 12:32:56;;;;;;;;;1.00;1.00;;;;;;;;5094354;27;45428;-80
2022/09/25 12:35:33;;;;;;;;;0.00;0.00;;;;;;;;5098263;27;45607;-83
2022/09/25 12:38:04;;;;;;;;;0.00;0.00;;;;;;;;5124874;27;46157;-84
2022/09/25 12:40:39;;;;;;;;;0.00;0.00;;;;;;;;5097198;27;45826;-83
2022/09/25 12:43:06;;;;;;;;;0.00;0.00;;;;;;;;5114791;27;45603;-84
2022/09/25 12:45:40;;;;;;;;;0.00;0.00;;;;;;;;5083715;27;46302;-85
2022/09/25 12:48:22;;;;;;;;;0.00;0.00;;;;;;;;5115637;27;45385;-82
2022/09/25 12:50:52;;;;;;;;;0.00;0.00;;;;;;;;5097143;27;45470;-79
2022/09/25 12:53:24;;;;;;;;;0.00;0.00;;;;;;;;5105681;27;45496;-80
2022/09/25 12:55:59;;;;;;;;;0.00;0.00;;;;;;;;5111359;27;45560;-82
2022/09/25 12:58:47;;;;;;;;;0.00;0.00;;;;;;;;5108668;27;45342;-83
2022/09/25 13:01:21;;;;;;;;;1.00;1.00;;;;;;;;5088284;27;45577;-82
2022/09/25 13:04:06;;;;;;;;;1.00;0.00;;;;;;;;5094439;27;45428;-83
2022/09/25 13:06:41;;;;;;;;;0.25;0.25;;;;;;;;5092590;27;45414;-78
2022/09/25 13:09:14;;;;;;;;;0.25;0.00;;;;;;;;5073831;27;46818;-83
2022/09/25 13:11:46;;;;;;;;;0.00;0.00;;;;;;;;5066414;27;45565;-78
2022/09/25 13:14:21;;;;;;;;;0.00;0.00;;;;;;;;5083532;27;45874;-80
2022/09/25 13:16:47;;;;;;;;;0.00;0.00;;;;;;;;5094527;27;45777;-80
2022/09/25 13:19:26;;;;;;;;;0.00;0.00;;;;;;;;5058593;28;46945;-79
2022/09/25 13:21:58;;;;;;;;;1.00;0.00;;;;;;;;5072195;28;45684;-80
2022/09/25 13:24:23;;;;;;;;;3.75;1.00;;;;;;;;5090658;27;45590;-81
2022/09/25 13:26:51;;;;;;;;;0.00;0.00;;;;;;;;5091664;27;45461;-80
2022/09/25 13:29:22;;;;;;;;;1.00;0.00;;;;;;;;5073312;27;47191;-80
2022/09/25 13:31:47;;;;;;;;;0.00;0.00;;;;;;;;5094226;27;45850;-78
2022/09/25 13:34:14;;;;;;;;;0.00;0.00;;;;;;;;5089642;27;45753;-80
2022/09/25 13:36:42;;;;;;;;;0.00;0.00;;;;;;;;5073119;27;46273;-79
2022/09/25 13:42:26;;;;;;;;;1.00;1.00;;;;;;;;5090835;27;45709;-85
2022/09/25 13:45:05;;;;;;;;;0.00;0.00;;;;;;;;5080621;27;45389;-84
2022/09/25 13:47:31;;;;;;;;;0.00;0.00;;;;;;;;5063604;27;46187;-80
2022/09/25 13:50:11;;;;;;;;;0.25;0.25;;;;;;;;5057387;27;47459;-80
2022/09/25 13:52:37;;;;;;;;;0.00;0.00;;;;;;;;5065311;27;45755;-81
2022/09/25 13:55:19;;;;;;;;;0.00;0.00;;;;;;;;5085340;27;46463;-80
2022/09/25 13:57:57;;;;;;;;;0.00;0.00;;;;;;;;5064164;27;45686;-80
2022/09/25 14:00:43;;;;;;;;;0.00;0.00;;;;;;;;5082816;27;45668;-84
2022/09/25 14:03:31;;;;;;;;;0.00;0.00;;;;;;;;5079835;27;45758;-84
2022/09/25 14:05:57;;;;;;;;;0.00;0.00;;;;;;;;5089430;27;45892;-85
2022/09/25 14:08:23;;;;;;;;;0.00;0.00;;;;;;;;5087795;27;45454;-84
2022/09/25 14:10:50;;;;;;;;;0.75;0.00;;;;;;;;5063844;27;46694;-79
2022/09/25 14:13:21;;;;;;;;;0.50;0.50;;;;;;;;5078675;27;45539;-80
2022/09/25 14:15:46;;;;;;;;;0.00;0.00;;;;;;;;5088703;27;45880;-81
2022/09/25 14:18:15;;;;;;;;;0.00;0.00;;;;;;;;5080466;27;45766;-86
2022/09/25 14:20:46;;;;;;;;;0.00;0.00;;;;;;;;5088496;27;45545;-81
2022/09/25 14:23:15;;;;;;;;;1.25;0.50;;;;;;;;5082186;27;45846;-81
2022/09/25 14:25:43;;;;;;;;;0.00;0.00;;;;;;;;5088965;27;45740;-84
2022/09/25 14:28:15;;;;;;;;;0.00;0.00;;;;;;;;5082956;27;45658;-84
2022/09/25 14:30:46;;;;;;;;;0.00;0.00;;;;;;;;5071708;27;45793;-79
2022/09/25 14:33:22;;;;;;;;;0.50;0.50;;;;;;;;5063702;27;45905;-81
2022/09/25 14:35:53;;;;;;;;;0.00;0.00;;;;;;;;5087427;27;45983;-80
2022/09/25 14:38:36;;;;;;;;;0.50;0.00;;;;;;;;5089055;27;46234;-80
2022/09/25 14:41:21;;;;;;;;;0.00;0.00;;;;;;;;5088651;27;45980;-80
2022/09/25 14:43:55;;;;;;;;;2.25;0.75;;;;;;;;5090594;27;45772;-84
2022/09/25 14:46:21;;;;;;;;;1.00;0.00;;;;;;;;5089361;27;45549;-85
2022/09/25 14:48:46;;;;;;;;;0.00;0.00;;;;;;;;5101900;27;46260;-82
2022/09/25 14:51:19;;;;;;;;;0.00;0.00;;;;;;;;5093753;27;46266;-83
2022/09/25 14:53:47;;;;;;;;;0.50;0.50;;;;;;;;5090051;27;45662;-83
2022/09/25 14:56:14;;;;;;;;;0.00;0.00;;;;;;;;5067391;27;46767;-82
2022/09/25 14:58:52;;;;;;;;;0.00;0.00;;;;;;;;5074296;27;45910;-84
2022/09/25 15:01:20;;;;;;;;;0.33;0.00;;;;;;;;5091737;27;45856;-80
2022/09/25 15:03:47;;;;;;;;;1.00;0.00;;;;;;;;5090828;27;45473;-80
2022/09/25 15:06:23;;;;;;;;;0.00;0.00;;;;;;;;5098814;27;45694;-79
2022/09/25 15:08:48;;;;;;;;;4.33;4.33;;;;;;;;5105353;27;45732;-82
2022/09/25 15:11:16;;;;;;;;;0.00;0.00;;;;;;;;5095545;27;45436;-79
2022/09/25 15:13:42;;;;;;;;;1.00;0.00;;;;;;;;5095833;27;45779;-82
2022/09/25 15:18:59;;;;;;;;;0.25;0.00;;;;;;;;5106062;27;45908;-80